Las Americas, República Dominicana

4:07 AM AST en Octubre 20, 2014 (GMT -0400)
Las Americas International | Change Station
CLOSE
Current Station
Aeropuerto
Location: Las Americas,
Altura: 59 ft
Estaciones meteorológicas cercanas

Alt 59 ft 18.43 °N, 69.67 °W | Updated 7 minutes ago

Thunderstorm
Tormenta
75 ° F
Sensación térmica 75 ° F
N
4
Viento Variable Viento desde Variable

Hoy
Alta -- | Baja -- ° F
--% Posibilidad de precipitaciones
Ayer
Alta -- | Baja -- ° F
Precip. -- pul
6:33 AM 6:12 PM
Creciente menguante, 12% visible
Presión 29.92 pul
Visibilidad 6.2 Millas
Nubes Baja 1400 ft
Baja 1600 ft
Punto de rocío 72 ° F
Humedad 89%
Precipitaciones 0.00 pul
Espesor de la nieve No disponible.
UV 0 de una escala de 12
Polen No disponible.
Calidad del aire No disponible.
Flu Activity No disponible.
METAR MDSD 200800Z VRB03KT 9999 TS FEW014CB FEW016 24/22 Q1013 CB/NE/N

More Conditions Fewer Conditions

Presión 29.92 pul
Visibilidad 6.2 Millas
Nubes Baja 1400 ft
Baja 1600 ft
Punto de rocío 72 ° F
Humedad 89%
Precipitaciones 0.00 pul
Espesor de la nieve No disponible.
UV 0 de una escala de 12
Polen No disponible.
Calidad del aire No disponible.
Flu Activity No disponible.
METAR MDSD 200800Z VRB03KT 9999 TS FEW014CB FEW016 24/22 Q1013 CB/NE/N

More Conditions Fewer Conditions

10-Day Weather Forecast

Almanac

Astronomía

Oct. 20, 2014 Salida Puesta
Hora real 6:33 AM AST 6:12 PM AST
Crepúsculo civil 6:11 AM AST 6:34 PM AST
Crepúsculo náutico 5:46 AM AST 7:00 PM AST
Crepúsculo astronómico 5:20 AM AST 7:25 PM AST
Luna 3:45 AM AST 4:11 PM AST
Horas de luz 12h 23m
Horas de luz
11h 38m
Tomorrow will be 0m 59s shorter.
Creciente menguante, 12% of the Moon is Illuminated
Hoy
Creciente menguante
Oct 23
Nueva
Oct 30
Cuarto creciente
Nov 6
Luna llena
Nov 14
Cuarto menguante

Extremos de ayer

Máximos del país Bajas del país

Community

WunderPhotos

Upload Photos

1,763,316 ¡fotos cargadas!

Nearby

Calidad del aire

Not available.

Grosos de nieve

Not available.

Actividad de terremotos

Ciudad Distance Mag. Tiempo y dato
No hay informes recientes de la actividad sísmica.
Magnitud mínima muestra es 2,5.

Temperaturas de aguas costeras

Lugar Temperatura
Sin partes meteorológicos de las estaciones

Estaciones meteorológicas cercanas